Porcupine Plain, Canada
Current Conditions -  °F | °C
As of 2:31 AM on Thursday 29 Jan 2015 (Local Time) from CYBU Reporting Station
Light Snow Light Snow  
Wind Chill: -11°   Ceiling: 1700
Heat Index:   Visibility: 9mi
Dew Point:   Wind: 12mph
Humidity: 78%   Direction: 290°WNW
Pressure: 30.47"   Gusts: NA
Location:  52.6°N, 103.25°W
Report Text: CYBU 290831Z AUTO 29010KT 9SM -SN OVC017 M15/M18 A3047 RMK SLP355
Loading
Personal Weather Stations






























Interactive Weather Map New forecast layout! Learn more

10-Day Weather Forecast

Advertisements
Track Severe Weather on mobile